Time,TemperatureF,DewpointF,PressureIn,WindDirection,WindDirectionDegrees,WindSpeedMPH,WindSpeedGustMPH,Humidity,HourlyPrecipIn,Conditions,Clouds,dailyrainin,SolarRadiationWatts/m^2,SoftwareType,DateUTC
2013-11-10 03:55:00,50.0,47.8,30.20,North,350,0.0,0.0,92,0.00,,,0.00,0,Wunderground v.1.15,2013-11-10 09:55:00,
2013-11-10 04:05:00,49.8,47.6,30.21,North,350,0.0,0.0,92,0.00,,,0.00,0,Wunderground v.1.15,2013-11-10 10:05:00,
2013-11-10 04:10:00,49.7,47.5,30.21,North,350,0.0,0.0,92,0.00,,,0.00,0,Wunderground v.1.15,2013-11-10 10:10:00,
2013-11-10 04:15:00,49.6,47.4,30.21,North,350,0.0,1.0,92,0.00,,,0.00,0,Wunderground v.1.15,2013-11-10 10:15:00,
2013-11-10 04:25:00,49.4,47.2,30.22,North,350,0.0,0.0,92,0.00,,,0.00,0,Wunderground v.1.15,2013-11-10 10:25:00,
2013-11-10 04:30:00,49.4,47.2,30.22,North,350,0.0,0.0,92,0.00,,,0.00,0,Wunderground v.1.15,2013-11-10 10:30:00,
2013-11-10 04:35:00,49.2,47.0,30.22,North,350,0.0,0.0,92,0.00,,,0.00,0,Wunderground v.1.15,2013-11-10 10:35:00,
2013-11-10 04:40:00,49.2,47.0,30.22,North,350,0.0,0.0,92,0.00,,,0.00,0,Wunderground v.1.15,2013-11-10 10:40:00,
2013-11-10 04:45:00,49.2,47.0,30.22,North,350,0.0,0.0,92,0.00,,,0.00,0,Wunderground v.1.15,2013-11-10 10:45:00,
2013-11-10 04:55:00,49.1,46.9,30.22,North,350,0.0,0.0,92,0.00,,,0.00,0,Wunderground v.1.15,2013-11-10 10:55:00,
2013-11-10 05:00:00,49.0,46.8,30.22,North,350,0.0,0.0,92,0.00,,,0.00,0,Wunderground v.1.15,2013-11-10 11:00:00,
2013-11-10 05:05:00,49.0,46.8,30.23,North,350,0.0,0.0,92,0.00,,,0.00,0,Wunderground v.1.15,2013-11-10 11:05:00,
2013-11-10 05:15:00,48.8,46.6,30.23,North,350,0.0,0.0,92,0.00,,,0.00,0,Wunderground v.1.15,2013-11-10 11:15:00,
2013-11-10 05:20:00,48.8,46.6,30.23,North,350,0.0,0.0,92,0.00,,,0.00,0,Wunderground v.1.15,2013-11-10 11:20:00,
2013-11-10 05:30:00,48.8,46.6,30.23,North,350,0.0,0.0,92,0.00,,,0.00,0,Wunderground v.1.15,2013-11-10 11:30:00,
2013-11-10 05:35:00,48.8,46.6,30.23,North,350,0.0,0.0,92,0.00,,,0.00,0,Wunderground v.1.15,2013-11-10 11:35:00,
2013-11-10 05:40:00,48.7,46.5,30.23,North,350,0.0,0.0,92,0.00,,,0.00,0,Wunderground v.1.15,2013-11-10 11:40:00,
2013-11-10 05:50:00,48.6,46.4,30.24,North,350,0.0,0.0,92,0.00,,,0.00,0,Wunderground v.1.15,2013-11-10 11:50:00,
2013-11-10 05:55:00,48.5,46.3,30.24,North,350,0.0,0.0,92,0.00,,,0.00,0,Wunderground v.1.15,2013-11-10 11:55:00,
2013-11-10 06:00:00,48.5,46.3,30.24,North,350,0.0,0.0,92,0.00,,,0.00,0,Wunderground v.1.15,2013-11-10 12:00:00,
2013-11-10 06:05:00,48.4,46.2,30.24,North,350,0.0,0.0,92,0.00,,,0.00,0,Wunderground v.1.15,2013-11-10 12:05:00,
2013-11-10 06:10:00,48.4,46.2,30.24,North,350,0.0,0.0,92,0.00,,,0.00,0,Wunderground v.1.15,2013-11-10 12:10:00,
2013-11-10 06:15:00,48.3,46.1,30.24,North,350,0.0,0.0,92,0.00,,,0.00,0,Wunderground v.1.15,2013-11-10 12:15:00,
2013-11-10 06:25:00,48.1,45.9,30.24,North,350,0.0,0.0,92,0.00,,,0.00,0,Wunderground v.1.15,2013-11-10 12:25:00,
2013-11-10 06:30:00,48.1,45.9,30.25,North,350,0.0,0.0,92,0.00,,,0.00,0,Wunderground v.1.15,2013-11-10 12:30:00,
2013-11-10 06:35:00,48.0,45.8,30.25,North,350,0.0,0.0,92,0.00,,,0.00,0,Wunderground v.1.15,2013-11-10 12:35:00,
2013-11-10 06:40:00,48.0,45.8,30.25,North,350,0.0,0.0,92,0.00,,,0.00,0,Wunderground v.1.15,2013-11-10 12:40:00,
2013-11-10 06:50:00,47.8,45.6,30.25,North,350,0.0,0.0,92,0.00,,,0.00,9,Wunderground v.1.15,2013-11-10 12:50:00,
2013-11-10 07:00:00,47.7,45.5,30.25,North,350,0.0,0.0,92,0.00,,,0.00,16,Wunderground v.1.15,2013-11-10 13:00:00,
2013-11-10 07:05:00,47.7,45.5,30.25,North,350,0.0,0.0,92,0.00,,,0.00,21,Wunderground v.1.15,2013-11-10 13:05:00,
2013-11-10 07:10:00,47.8,45.6,30.25,North,350,0.0,0.0,92,0.00,,,0.00,26,Wunderground v.1.15,2013-11-10 13:10:00,
2013-11-10 07:15:00,47.9,45.7,30.25,North,350,0.0,0.0,92,0.00,,,0.00,28,Wunderground v.1.15,2013-11-10 13:15:00,
2013-11-10 07:25:00,48.2,46.0,30.26,North,355,0.0,0.0,92,0.00,,,0.00,33,Wunderground v.1.15,2013-11-10 13:25:00,
2013-11-10 07:30:00,48.5,46.3,30.26,North,355,0.0,0.0,92,0.00,,,0.00,37,Wunderground v.1.15,2013-11-10 13:30:00,
2013-11-10 07:35:00,49.0,46.5,30.26,North,355,0.0,0.0,91,0.00,,,0.00,40,Wunderground v.1.15,2013-11-10 13:35:00,
2013-11-10 07:40:00,49.5,47.0,30.26,North,355,0.0,0.0,91,0.00,,,0.00,44,Wunderground v.1.15,2013-11-10 13:40:00,
2013-11-10 07:45:00,50.0,47.2,30.27,North,355,0.0,0.0,90,0.00,,,0.00,47,Wunderground v.1.15,2013-11-10 13:45:00,
2013-11-10 07:55:00,51.2,47.8,30.27,NNE,15,0.0,0.0,88,0.00,,,0.00,58,Wunderground v.1.15,2013-11-10 13:55:00,
2013-11-10 08:00:00,51.9,48.2,30.27,NE,51,0.0,0.0,87,0.00,,,0.00,79,Wunderground v.1.15,2013-11-10 14:00:00,
2013-11-10 08:05:00,52.6,48.5,30.27,ENE,76,1.0,3.0,86,0.00,,,0.00,125,Wunderground v.1.15,2013-11-10 14:05:00,
2013-11-10 08:10:00,53.2,48.5,30.27,ENE,76,2.0,3.0,84,0.00,,,0.00,127,Wunderground v.1.15,2013-11-10 14:10:00,
2013-11-10 08:15:00,53.8,49.1,30.27,NNE,30,1.0,3.0,84,0.00,,,0.00,178,Wunderground v.1.15,2013-11-10 14:15:00,
2013-11-10 08:20:00,54.3,49.2,30.27,East,94,1.0,3.0,83,0.00,,,0.00,195,Wunderground v.1.15,2013-11-10 14:20:00,
2013-11-10 08:25:00,54.9,49.5,30.28,NE,40,1.0,3.0,82,0.00,,,0.00,179,Wunderground v.1.15,2013-11-10 14:25:00,
2013-11-10 08:30:00,55.3,49.6,30.28,East,100,2.0,2.0,81,0.00,,,0.00,148,Wunderground v.1.15,2013-11-10 14:30:00,
2013-11-10 08:35:00,55.5,49.8,30.28,East,87,1.0,2.0,81,0.00,,,0.00,139,Wunderground v.1.15,2013-11-10 14:35:00,
2013-11-10 08:45:00,56.0,50.6,30.28,ENE,66,0.0,3.0,82,0.00,,,0.00,176,Wunderground v.1.15,2013-11-10 14:45:00,
2013-11-10 08:55:00,56.3,50.5,30.28,NNE,29,0.0,0.0,81,0.00,,,0.00,204,Wunderground v.1.15,2013-11-10 14:55:00,
2013-11-10 09:00:00,56.5,50.4,30.28,NNE,17,1.0,1.0,80,0.00,,,0.00,192,Wunderground v.1.15,2013-11-10 15:00:00,
2013-11-10 09:05:00,56.7,50.6,30.28,ENE,77,1.0,1.0,80,0.00,,,0.00,202,Wunderground v.1.15,2013-11-10 15:05:00,
2013-11-10 09:10:00,56.8,50.7,30.29,NE,55,1.0,1.0,80,0.00,,,0.00,190,Wunderground v.1.15,2013-11-10 15:10:00,
2013-11-10 09:20:00,57.1,51.0,30.29,NNE,13,1.0,1.0,80,0.00,,,0.00,241,Wunderground v.1.15,2013-11-10 15:20:00,
2013-11-10 09:25:00,57.5,51.4,30.29,North,5,1.0,1.0,80,0.00,,,0.00,248,Wunderground v.1.15,2013-11-10 15:25:00,
2013-11-10 09:30:00,57.8,51.3,30.29,NNE,24,1.0,1.0,79,0.00,,,0.00,272,Wunderground v.1.15,2013-11-10 15:30:00,
2013-11-10 09:35:00,58.0,51.9,30.29,North,355,1.0,2.0,80,0.00,,,0.00,276,Wunderground v.1.15,2013-11-10 15:35:00,
2013-11-10 09:40:00,58.2,52.1,30.29,North,360,1.0,1.0,80,0.00,,,0.00,269,Wunderground v.1.15,2013-11-10 15:40:00,
2013-11-10 09:45:00,58.5,52.0,30.29,ENE,76,1.0,2.0,79,0.00,,,0.00,290,Wunderground v.1.15,2013-11-10 15:45:00,
2013-11-10 09:55:00,58.7,52.2,30.29,North,5,1.0,1.0,79,0.00,,,0.00,251,Wunderground v.1.15,2013-11-10 15:55:00,
2013-11-10 10:00:00,59.0,52.5,30.29,NNE,12,1.0,1.0,79,0.00,,,0.00,267,Wunderground v.1.15,2013-11-10 16:00:00,
2013-11-10 10:05:00,59.3,52.8,30.29,North,360,1.0,1.0,79,0.00,,,0.00,258,Wunderground v.1.15,2013-11-10 16:05:00,
2013-11-10 10:10:00,59.5,53.0,30.29,North,360,0.0,1.0,79,0.00,,,0.00,269,Wunderground v.1.15,2013-11-10 16:10:00,
2013-11-10 10:20:00,59.9,53.4,30.29,North,360,1.0,1.0,79,0.00,,,0.00,330,Wunderground v.1.15,2013-11-10 16:20:00,
2013-11-10 10:25:00,60.2,53.0,30.29,ENE,78,0.0,2.0,77,0.00,,,0.00,388,Wunderground v.1.15,2013-11-10 16:25:00,
2013-11-10 10:35:00,60.4,53.5,30.28,NNW,348,2.0,5.0,78,0.00,,,0.00,497,Wunderground v.1.15,2013-11-10 16:35:00,
2013-11-10 10:40:00,61.1,54.2,30.28,ENE,57,1.0,3.0,78,0.00,,,0.00,371,Wunderground v.1.15,2013-11-10 16:40:00,
2013-11-10 10:45:00,61.3,54.4,30.28,NW,323,1.0,3.0,78,0.00,,,0.00,645,Wunderground v.1.15,2013-11-10 16:45:00,
2013-11-10 10:50:00,62.0,54.7,30.27,NNE,12,2.0,2.0,77,0.00,,,0.00,434,Wunderground v.1.15,2013-11-10 16:50:00,
2013-11-10 10:55:00,62.5,54.5,30.27,North,360,1.0,3.0,75,0.00,,,0.00,338,Wunderground v.1.15,2013-11-10 16:55:00,
2013-11-10 11:00:00,62.8,55.1,30.27,NNE,13,1.0,1.0,76,0.00,,,0.00,248,Wunderground v.1.15,2013-11-10 17:00:00,
2013-11-10 11:10:00,63.1,55.0,30.26,North,5,1.0,1.0,75,0.00,,,0.00,272,Wunderground v.1.15,2013-11-10 17:10:00,
2013-11-10 11:15:00,63.6,55.5,30.26,NNE,21,2.0,3.0,75,0.00,,,0.00,86,Wunderground v.1.15,2013-11-10 17:15:00,
2013-11-10 11:20:00,64.0,55.9,30.26,North,355,1.0,1.0,75,0.00,,,0.00,220,Wunderground v.1.15,2013-11-10 17:20:00,
2013-11-10 11:25:00,64.5,56.0,30.26,North,360,1.0,1.0,74,0.00,,,0.00,654,Wunderground v.1.15,2013-11-10 17:25:00,
2013-11-10 11:30:00,64.9,56.0,30.25,North,355,2.0,6.0,73,0.00,,,0.00,654,Wunderground v.1.15,2013-11-10 17:30:00,
2013-11-10 11:40:00,65.8,56.1,30.25,East,90,2.0,2.0,71,0.00,,,0.00,663,Wunderground v.1.15,2013-11-10 17:40:00,
2013-11-10 11:45:00,66.0,56.7,30.25,ENE,78,2.0,2.0,72,0.00,,,0.00,668,Wunderground v.1.15,2013-11-10 17:45:00,
2013-11-10 11:50:00,66.4,56.7,30.25,NE,41,1.0,2.0,71,0.00,,,0.00,664,Wunderground v.1.15,2013-11-10 17:50:00,
2013-11-10 12:00:00,67.5,57.0,30.24,NE,36,1.0,1.0,69,0.00,,,0.00,668,Wunderground v.1.15,2013-11-10 18:00:00,
2013-11-10 12:05:00,68.0,57.0,30.24,ENE,67,1.0,2.0,68,0.00,,,0.00,668,Wunderground v.1.15,2013-11-10 18:05:00,
2013-11-10 12:10:00,67.7,57.6,30.24,East,81,1.0,1.0,70,0.00,,,0.00,668,Wunderground v.1.15,2013-11-10 18:10:00,
2013-11-10 12:20:00,68.2,58.0,30.23,NNE,30,1.0,3.0,70,0.00,,,0.00,675,Wunderground v.1.15,2013-11-10 18:20:00,
2013-11-10 12:25:00,68.7,57.7,30.22,NNW,346,2.0,3.0,68,0.00,,,0.00,698,Wunderground v.1.15,2013-11-10 18:25:00,
2013-11-10 12:30:00,69.1,57.7,30.22,ENE,75,2.0,2.0,67,0.00,,,0.00,768,Wunderground v.1.15,2013-11-10 18:30:00,
2013-11-10 12:35:00,69.5,58.1,30.22,NNW,340,2.0,2.0,67,0.00,,,0.00,548,Wunderground v.1.15,2013-11-10 18:35:00,
2013-11-10 12:40:00,69.7,58.3,30.22,ENE,76,2.0,3.0,67,0.00,,,0.00,557,Wunderground v.1.15,2013-11-10 18:40:00,
2013-11-10 12:45:00,69.5,57.6,30.22,East,87,1.0,3.0,66,0.00,,,0.00,455,Wunderground v.1.15,2013-11-10 18:45:00,
2013-11-10 12:55:00,69.3,57.5,30.22,North,350,2.0,3.0,66,0.00,,,0.00,543,Wunderground v.1.15,2013-11-10 18:55:00,
2013-11-10 13:00:00,69.7,58.3,30.21,NNW,339,3.0,3.0,67,0.00,,,0.00,536,Wunderground v.1.15,2013-11-10 19:00:00,
2013-11-10 13:05:00,70.5,59.0,30.21,NNW,342,2.0,3.0,67,0.00,,,0.00,489,Wunderground v.1.15,2013-11-10 19:05:00,
2013-11-10 13:10:00,70.4,58.1,30.21,North,5,2.0,2.0,65,0.00,,,0.00,485,Wunderground v.1.15,2013-11-10 19:10:00,
2013-11-10 13:15:00,70.3,58.4,30.20,East,85,2.0,5.0,66,0.00,,,0.00,359,Wunderground v.1.15,2013-11-10 19:15:00,
2013-11-10 13:25:00,69.9,58.9,30.20,ESE,114,3.0,5.0,68,0.00,,,0.00,650,Wunderground v.1.15,2013-11-10 19:25:00,
2013-11-10 13:30:00,70.0,59.0,30.20,ENE,73,3.0,3.0,68,0.00,,,0.00,643,Wunderground v.1.15,2013-11-10 19:30:00,
2013-11-10 13:35:00,70.3,58.4,30.20,North,5,2.0,3.0,66,0.00,,,0.00,629,Wunderground v.1.15,2013-11-10 19:35:00,
2013-11-10 13:40:00,71.0,58.6,30.20,ESE,102,1.0,2.0,65,0.00,,,0.00,606,Wunderground v.1.15,2013-11-10 19:40:00,
2013-11-10 13:45:00,71.1,59.2,30.20,ENE,65,2.0,2.0,66,0.00,,,0.00,468,Wunderground v.1.15,2013-11-10 19:45:00,
2013-11-10 13:55:00,71.2,59.7,30.20,North,11,1.0,4.0,67,0.00,,,0.00,519,Wunderground v.1.15,2013-11-10 19:55:00,
2013-11-10 14:00:00,71.3,59.8,30.19,NNE,21,3.0,3.0,67,0.00,,,0.00,471,Wunderground v.1.15,2013-11-10 20:00:00,
2013-11-10 14:05:00,71.5,60.0,30.19,NNW,345,3.0,3.0,67,0.00,,,0.00,540,Wunderground v.1.15,2013-11-10 20:05:00,
2013-11-10 14:10:00,71.8,59.4,30.19,NNE,17,3.0,6.0,65,0.00,,,0.00,534,Wunderground v.1.15,2013-11-10 20:10:00,
2013-11-10 17:10:00,68.0,59.4,30.19,ENE,61,0.0,0.0,74,0.00,,,0.00,12,Wunderground v.1.15,2013-11-10 23:10:00,
2013-11-10 17:15:00,67.5,59.3,30.19,ENE,61,0.0,0.0,75,0.00,,,0.00,9,Wunderground v.1.15,2013-11-10 23:15:00,
2013-11-10 17:20:00,67.0,59.5,30.19,ENE,61,0.0,0.0,77,0.00,,,0.00,5,Wunderground v.1.15,2013-11-10 23:20:00,
2013-11-10 17:25:00,66.4,59.3,30.20,ENE,61,0.0,0.0,78,0.00,,,0.00,0,Wunderground v.1.15,2013-11-10 23:25:00,
2013-11-10 17:30:00,65.8,59.1,30.19,ENE,61,0.0,0.0,79,0.00,,,0.00,0,Wunderground v.1.15,2013-11-10 23:30:00,
2013-11-10 17:40:00,64.7,58.7,30.20,ENE,61,0.0,0.0,81,0.00,,,0.00,0,Wunderground v.1.15,2013-11-10 23:40:00,
2013-11-10 17:45:00,64.1,58.5,30.20,ENE,61,0.0,0.0,82,0.00,,,0.00,0,Wunderground v.1.15,2013-11-10 23:45:00,
2013-11-10 17:55:00,62.7,58.1,30.21,ENE,61,0.0,0.0,85,0.00,,,0.00,0,Wunderground v.1.15,2013-11-10 23:55:00,
2013-11-10 18:05:00,61.7,57.5,30.20,ENE,61,0.0,0.0,86,0.00,,,0.00,0,Wunderground v.1.15,2013-11-11 00:05:00,
2013-11-10 18:10:00,61.3,57.4,30.20,ENE,61,0.0,0.0,87,0.00,,,0.00,0,Wunderground v.1.15,2013-11-11 00:10:00,
2013-11-10 18:15:00,60.8,57.2,30.20,ENE,61,0.0,0.0,88,0.00,,,0.00,0,Wunderground v.1.15,2013-11-11 00:15:00,
2013-11-10 18:20:00,60.4,57.1,30.21,ENE,61,0.0,0.0,89,0.00,,,0.00,0,Wunderground v.1.15,2013-11-11 00:20:00,
2013-11-10 18:25:00,60.1,57.2,30.21,ENE,61,0.0,0.0,90,0.00,,,0.00,0,Wunderground v.1.15,2013-11-11 00:25:00,
2013-11-10 18:35:00,59.5,56.6,30.22,ENE,61,0.0,0.0,90,0.00,,,0.00,0,Wunderground v.1.15,2013-11-11 00:35:00,
2013-11-10 18:40:00,59.3,56.4,30.22,ENE,61,0.0,0.0,90,0.00,,,0.00,0,Wunderground v.1.15,2013-11-11 00:40:00,
2013-11-10 18:45:00,59.0,56.1,30.22,ENE,61,0.0,0.0,90,0.00,,,0.00,0,Wunderground v.1.15,2013-11-11 00:45:00,
2013-11-10 18:50:00,58.7,55.8,30.22,ENE,61,0.0,0.0,90,0.00,,,0.00,0,Wunderground v.1.15,2013-11-11 00:50:00,
2013-11-10 19:00:00,58.3,55.7,30.22,ENE,61,0.0,0.0,91,0.00,,,0.00,0,Wunderground v.1.15,2013-11-11 01:00:00,
2013-11-10 19:05:00,58.1,55.8,30.22,ENE,61,0.0,0.0,92,0.00,,,0.00,0,Wunderground v.1.15,2013-11-11 01:05:00,
2013-11-10 19:10:00,58.0,55.4,30.22,ENE,61,0.0,0.0,91,0.00,,,0.00,0,Wunderground v.1.15,2013-11-11 01:10:00,
2013-11-10 19:15:00,57.8,55.5,30.22,ENE,61,0.0,0.0,92,0.00,,,0.00,0,Wunderground v.1.15,2013-11-11 01:15:00,
2013-11-10 19:20:00,57.6,55.3,30.22,ENE,61,0.0,0.0,92,0.00,,,0.00,0,Wunderground v.1.15,2013-11-11 01:20:00,
2013-11-10 19:25:00,57.4,55.1,30.22,ENE,61,0.0,0.0,92,0.00,,,0.00,0,Wunderground v.1.15,2013-11-11 01:25:00,
2013-11-10 19:35:00,57.2,54.9,30.23,ENE,61,0.0,0.0,92,0.00,,,0.00,0,Wunderground v.1.15,2013-11-11 01:35:00,
2013-11-10 19:45:00,56.9,54.6,30.23,ENE,61,0.0,0.0,92,0.00,,,0.00,0,Wunderground v.1.15,2013-11-11 01:45:00,
2013-11-10 19:50:00,56.7,54.4,30.23,ENE,61,0.0,0.0,92,0.00,,,0.00,0,Wunderground v.1.15,2013-11-11 01:50:00,
2013-11-10 20:00:00,56.4,54.4,30.23,ENE,61,0.0,0.0,93,0.00,,,0.00,0,Wunderground v.1.15,2013-11-11 02:00:00,
2013-11-10 20:05:00,56.2,53.9,30.23,ENE,61,0.0,0.0,92,0.00,,,0.00,0,Wunderground v.1.15,2013-11-11 02:05:00,
2013-11-10 20:10:00,56.1,54.1,30.23,ENE,61,0.0,0.0,93,0.00,,,0.00,0,Wunderground v.1.15,2013-11-11 02:10:00,
2013-11-10 20:20:00,55.9,53.9,30.23,ENE,61,0.0,0.0,93,0.00,,,0.00,0,Wunderground v.1.15,2013-11-11 02:20:00,
2013-11-10 20:25:00,56.0,54.0,30.23,ENE,61,0.0,0.0,93,0.00,,,0.00,0,Wunderground v.1.15,2013-11-11 02:25:00,
2013-11-10 20:35:00,55.9,53.9,30.24,ENE,61,0.0,0.0,93,0.00,,,0.00,0,Wunderground v.1.15,2013-11-11 02:35:00,
2013-11-10 20:40:00,55.9,53.9,30.24,ENE,61,0.0,0.0,93,0.00,,,0.00,0,Wunderground v.1.15,2013-11-11 02:40:00,
2013-11-10 20:45:00,55.8,53.8,30.23,ENE,61,0.0,0.0,93,0.00,,,0.00,0,Wunderground v.1.15,2013-11-11 02:45:00,
2013-11-10 20:50:00,55.6,53.6,30.23,ENE,61,0.0,0.0,93,0.00,,,0.00,0,Wunderground v.1.15,2013-11-11 02:50:00,
2013-11-10 20:55:00,55.4,53.4,30.23,ENE,61,0.0,0.0,93,0.00,,,0.00,0,Wunderground v.1.15,2013-11-11 02:55:00,
2013-11-10 21:00:00,55.3,53.3,30.23,ENE,61,0.0,0.0,93,0.00,,,0.00,0,Wunderground v.1.15,2013-11-11 03:00:00,
2013-11-10 21:10:00,55.1,53.1,30.24,ENE,61,0.0,0.0,93,0.00,,,0.00,0,Wunderground v.1.15,2013-11-11 03:10:00,
2013-11-10 21:15:00,55.0,53.0,30.24,ENE,61,0.0,0.0,93,0.00,,,0.00,0,Wunderground v.1.15,2013-11-11 03:15:00,
2013-11-10 21:25:00,54.8,52.8,30.24,ENE,61,0.0,0.0,93,0.00,,,0.00,0,Wunderground v.1.15,2013-11-11 03:25:00,
2013-11-10 21:35:00,54.7,52.7,30.24,ENE,61,0.0,0.0,93,0.00,,,0.00,0,Wunderground v.1.15,2013-11-11 03:35:00,
2013-11-10 21:40:00,54.6,52.6,30.24,ENE,61,0.0,0.0,93,0.00,,,0.00,0,Wunderground v.1.15,2013-11-11 03:40:00,
2013-11-10 21:50:00,54.4,52.4,30.24,ENE,61,0.0,0.0,93,0.00,,,0.00,0,Wunderground v.1.15,2013-11-11 03:50:00,
2013-11-10 21:55:00,54.3,52.3,30.24,ENE,61,0.0,0.0,93,0.00,,,0.00,0,Wunderground v.1.15,2013-11-11 03:55:00,
2013-11-10 22:00:00,54.2,52.2,30.24,ENE,61,0.0,0.0,93,0.00,,,0.00,0,Wunderground v.1.15,2013-11-11 04:00:00,
2013-11-10 22:05:00,54.0,52.0,30.24,ENE,61,0.0,0.0,93,0.00,,,0.00,0,Wunderground v.1.15,2013-11-11 04:05:00,
2013-11-10 22:15:00,53.8,51.8,30.24,ENE,61,0.0,0.0,93,0.00,,,0.00,0,Wunderground v.1.15,2013-11-11 04:15:00,
2013-11-10 22:20:00,53.7,51.7,30.24,ENE,61,0.0,0.0,93,0.00,,,0.00,0,Wunderground v.1.15,2013-11-11 04:20:00,
2013-11-10 22:25:00,53.6,51.6,30.24,ENE,61,0.0,0.0,93,0.00,,,0.00,0,Wunderground v.1.15,2013-11-11 04:25:00,
2013-11-10 22:30:00,53.5,51.5,30.24,ENE,61,0.0,0.0,93,0.00,,,0.00,0,Wunderground v.1.15,2013-11-11 04:30:00,
2013-11-10 22:40:00,53.2,51.2,30.24,ENE,61,0.0,0.0,93,0.00,,,0.00,0,Wunderground v.1.15,2013-11-11 04:40:00,
2013-11-10 22:45:00,53.1,51.1,30.24,ENE,61,0.0,0.0,93,0.00,,,0.00,0,Wunderground v.1.15,2013-11-11 04:45:00,
2013-11-10 22:50:00,53.0,51.0,30.24,ENE,61,0.0,0.0,93,0.00,,,0.00,0,Wunderground v.1.15,2013-11-11 04:50:00,
2013-11-10 22:55:00,52.9,50.9,30.24,ENE,61,0.0,0.0,93,0.00,,,0.00,0,Wunderground v.1.15,2013-11-11 04:55:00,
2013-11-10 23:05:00,52.6,50.9,30.23,ENE,61,0.0,0.0,94,0.00,,,0.00,0,Wunderground v.1.15,2013-11-11 05:05:00,
2013-11-10 23:10:00,52.6,50.6,30.23,ENE,61,0.0,0.0,93,0.00,,,0.00,0,Wunderground v.1.15,2013-11-11 05:10:00,
2013-11-10 23:15:00,52.5,50.5,30.24,ENE,61,0.0,0.0,93,0.00,,,0.00,0,Wunderground v.1.15,2013-11-11 05:15:00,
2013-11-10 23:20:00,52.4,50.4,30.23,ENE,61,0.0,0.0,93,0.00,,,0.00,0,Wunderground v.1.15,2013-11-11 05:20:00,
2013-11-10 23:30:00,52.3,50.6,30.23,ENE,61,0.0,0.0,94,0.00,,,0.00,0,Wunderground v.1.15,2013-11-11 05:30:00,
2013-11-10 23:35:00,52.1,50.4,30.23,ENE,61,0.0,0.0,94,0.00,,,0.00,0,Wunderground v.1.15,2013-11-11 05:35:00,
2013-11-10 23:40:00,52.1,50.4,30.23,ENE,61,0.0,0.0,94,0.00,,,0.00,0,Wunderground v.1.15,2013-11-11 05:40:00,
2013-11-10 23:44:00,52.0,50.0,30.23,ENE,61,0.0,0.0,93,0.00,,,0.00,0,Wunderground v.1.15,2013-11-11 05:44:00,
2013-11-10 23:50:00,51.8,49.8,30.23,ENE,61,0.0,0.0,93,0.00,,,0.00,0,Wunderground v.1.15,2013-11-11 05:50:00,
2013-11-10 23:55:00,51.7,49.7,30.23,ENE,61,0.0,0.0,93,0.00,,,0.00,0,Wunderground v.1.15,2013-11-11 05:55:00,